Airfield :
LOGIN :

Register | Disclaimer

   EN    FR    IT 

 










Legend :    VFR   Marginal VFR   IFR   Intensive IFR   Very Intensive IFR
Visi :
Ceiling :
>= 8 km
>= 3000ft
5 to 8 km
1000 to 3000 ft
1500m to 5 km
500 to 1000 ft
800 to 1500m
200 to 500 ft
< 800m
< 200 ft
Symbols :   Thunderstorms  Fog  Heavy snow  Heavy precipitations  Wind > 20 kt
SIGMETs :     Misc.  Thunderstorms  Icing  Turbulence  Mountain Waves  Volcanic Ashes






- Airport Elevation : 86 ft


LERT - Rota Navy

CURRENT METAR :
  • 081400Z 26009KT 210V310 9999 FEW028 28/23 Q1016 NOSIG

EXPIRED METARs :
  • 081330Z 25007KT 210V320 9999 FEW028 29/22 Q1016 NOSIG
  • 081300Z 28008KT 230V320 9999 FEW028 29/21 Q1017 NOSIG
  • 081230Z 26009KT 220V300 9999 FEW028 28/22 Q1017 NOSIG
  • 081200Z 25010KT 9999 FEW028 28/21 Q1017 NOSIG
  • 081130Z 22009KT 190V250 9999 FEW028 29/21 Q1017 NOSIG
  • 081100Z 18003KT 9999 FEW028 31/19 Q1017 NOSIG

TAF TAF LERT
Valid from the 08 at 09:00 until the 09 at 09:00 UTC


080800Z 0809/0909 13005KT 9999 FEW020 TX32/0813Z TN22/0905Z
BECMG 0811/0813 26010KT
BECMG 0821/0824 13005KT



MET'MAP, your aeronautical weather chart ! - Copyright ORBIFLY December 2007 - Disclaimer

ORBIFLY MET'MAP TEAM :

Programming & Development : Alexandra Zaïnal
Concept & original design : Baudouin d'Aumeries
Assistance for programming : Marc-Olivier Méhu
Technical & hardware support : Manuel Goepfert

Contact : metmap@orbifly.com




SOURCES & CREDITS :

   NOAA